createdAt,value
2022-08-23T00:00:15.101Z,69
2022-08-23T00:05:15.086Z,69
2022-08-23T00:10:15.106Z,70
2022-08-23T00:15:15.095Z,71
2022-08-23T00:20:15.101Z,71
2022-08-23T00:25:15.104Z,71
2022-08-23T00:30:15.101Z,70
2022-08-23T00:35:15.917Z,70
2022-08-23T00:40:15.158Z,72
2022-08-23T00:45:15.093Z,73
2022-08-23T00:50:19.417Z,73
2022-08-23T00:55:15.102Z,73
2022-08-23T01:00:15.093Z,74
2022-08-23T01:05:15.085Z,74
2022-08-23T01:10:15.103Z,74
2022-08-23T01:15:15.090Z,75
2022-08-23T01:20:15.103Z,75
2022-08-23T01:25:15.098Z,74
2022-08-23T01:30:15.107Z,74
2022-08-23T01:35:15.133Z,74
2022-08-23T01:40:15.143Z,74
2022-08-23T01:45:15.084Z,74
2022-08-23T01:50:15.097Z,74
2022-08-23T01:55:15.104Z,74
2022-08-23T02:00:15.114Z,74
2022-08-23T02:05:17.511Z,75
2022-08-23T02:10:15.106Z,75
2022-08-23T02:15:15.104Z,76
2022-08-23T02:20:15.122Z,77
2022-08-23T02:25:15.100Z,77
2022-08-23T02:30:15.097Z,77
2022-08-23T02:35:15.112Z,77
2022-08-23T02:40:15.212Z,77
2022-08-23T02:45:15.131Z,76
2022-08-23T02:50:15.129Z,76
2022-08-23T02:55:15.123Z,76
2022-08-23T03:00:15.131Z,76
2022-08-23T03:05:15.126Z,76
2022-08-23T03:10:15.122Z,76
2022-08-23T03:15:15.124Z,76
2022-08-23T03:20:15.122Z,76
2022-08-23T03:25:15.122Z,76
2022-08-23T03:30:17.936Z,76
2022-08-23T03:35:15.199Z,76
2022-08-23T03:40:15.146Z,76
2022-08-23T03:45:15.098Z,76
2022-08-23T03:50:15.090Z,76
2022-08-23T03:55:15.097Z,77
2022-08-23T04:00:15.107Z,77
2022-08-23T04:05:15.095Z,77
2022-08-23T04:10:15.118Z,77
2022-08-23T04:15:15.099Z,77
2022-08-23T04:20:15.106Z,77
2022-08-23T04:25:34.081Z,77
2022-08-23T04:30:15.103Z,78
2022-08-23T04:35:15.096Z,77
2022-08-23T04:40:15.185Z,77
2022-08-23T04:45:15.090Z,77
2022-08-23T04:50:15.099Z,77
2022-08-23T04:55:15.095Z,77
2022-08-23T05:00:15.098Z,77
2022-08-23T05:05:15.101Z,77
2022-08-23T05:10:15.093Z,76
2022-08-23T05:15:15.092Z,76
2022-08-23T05:20:15.099Z,75
2022-08-23T05:25:15.101Z,75
2022-08-23T05:30:15.548Z,74
2022-08-23T05:35:15.092Z,74
2022-08-23T05:40:15.184Z,73
2022-08-23T05:45:18.242Z,73
2022-08-23T05:50:15.101Z,72
2022-08-23T05:55:15.097Z,72
2022-08-23T06:00:15.097Z,70
2022-08-23T06:05:15.087Z,69
2022-08-23T06:10:16.122Z,69
2022-08-23T06:15:15.098Z,69
2022-08-23T06:20:15.130Z,70
2022-08-23T06:25:15.100Z,70
2022-08-23T06:30:15.114Z,69
2022-08-23T06:35:19.478Z,69
2022-08-23T06:40:15.135Z,69
2022-08-23T06:45:15.083Z,68
2022-08-23T06:50:15.095Z,67
2022-08-23T06:55:15.112Z,66
2022-08-23T07:00:17.836Z,66
2022-08-23T07:05:15.105Z,66
2022-08-23T07:10:15.100Z,66
2022-08-23T07:15:15.086Z,65
2022-08-23T07:20:15.098Z,65
2022-08-23T07:25:15.090Z,65
2022-08-23T07:30:15.100Z,65
2022-08-23T07:35:15.089Z,65
2022-08-23T07:40:20.481Z,65
2022-08-23T07:45:15.099Z,65
2022-08-23T07:50:15.096Z,63
2022-08-23T07:55:15.095Z,63
2022-08-23T08:00:15.127Z,63
2022-08-23T08:05:18.406Z,63
2022-08-23T08:10:15.105Z,62
2022-08-23T08:15:15.100Z,62
2022-08-23T08:20:15.091Z,61
2022-08-23T08:25:15.108Z,59
2022-08-23T08:30:15.092Z,58
2022-08-23T08:35:15.089Z,58
2022-08-23T08:40:15.141Z,57
2022-08-23T08:45:15.094Z,55
2022-08-23T08:50:15.113Z,54
2022-08-23T08:55:15.101Z,54
2022-08-23T09:00:15.115Z,53
2022-08-23T09:05:15.103Z,52
2022-08-23T09:10:15.100Z,52
2022-08-23T09:15:15.101Z,52
2022-08-23T09:20:15.100Z,51
2022-08-23T09:25:15.123Z,51
2022-08-23T09:30:15.105Z,50
2022-08-23T09:35:15.102Z,50
2022-08-23T09:40:16.300Z,49
2022-08-23T09:45:15.090Z,49
2022-08-23T09:50:15.098Z,47
2022-08-23T09:55:15.097Z,47
2022-08-23T10:00:15.179Z,47
2022-08-23T10:05:15.112Z,45
2022-08-23T10:10:15.217Z,45
2022-08-23T10:15:15.092Z,44
2022-08-23T10:20:15.102Z,44
2022-08-23T10:25:15.094Z,43
2022-08-23T10:30:15.098Z,42
2022-08-23T10:35:15.094Z,42
2022-08-23T10:40:15.142Z,41
2022-08-23T10:45:15.089Z,40
2022-08-23T10:50:15.099Z,41
2022-08-23T10:55:15.096Z,41
2022-08-23T11:00:15.102Z,40
2022-08-23T11:05:15.093Z,39
2022-08-23T11:10:16.520Z,40
2022-08-23T11:15:15.093Z,40
2022-08-23T11:20:15.097Z,40
2022-08-23T11:25:15.097Z,39
2022-08-23T11:30:15.104Z,39
2022-08-23T11:35:15.097Z,38
2022-08-23T11:40:18.221Z,38
2022-08-23T11:45:15.114Z,39
2022-08-23T11:50:15.106Z,39
2022-08-23T11:55:15.097Z,39
2022-08-23T12:00:15.104Z,39
2022-08-23T12:05:15.092Z,38
2022-08-23T12:10:15.106Z,38
2022-08-23T12:15:15.101Z,38
2022-08-23T12:20:16.591Z,38
2022-08-23T12:25:15.094Z,38
2022-08-23T12:30:15.117Z,38
2022-08-23T12:35:15.098Z,38
2022-08-23T12:40:15.165Z,37
2022-08-23T12:45:15.105Z,36
2022-08-23T12:50:15.267Z,37
2022-08-23T12:55:15.094Z,37
2022-08-23T13:00:16.255Z,38
2022-08-23T13:05:15.079Z,37
2022-08-23T13:10:15.098Z,37
2022-08-23T13:15:15.086Z,37
2022-08-23T13:20:15.272Z,37
2022-08-23T13:25:28.461Z,36
2022-08-23T13:30:15.105Z,35
2022-08-23T13:35:15.090Z,35
2022-08-23T13:40:15.117Z,36
2022-08-23T13:45:15.088Z,36
2022-08-23T13:50:15.108Z,36
2022-08-23T13:55:15.082Z,36
2022-08-23T14:00:19.269Z,36
2022-08-23T14:05:15.157Z,36
2022-08-23T14:10:15.097Z,35
2022-08-23T14:15:15.089Z,35
2022-08-23T14:25:15.097Z,34
2022-08-23T14:30:15.100Z,35
2022-08-23T14:35:15.087Z,34
2022-08-23T14:40:15.174Z,35
2022-08-23T14:45:15.099Z,35
2022-08-23T14:50:15.096Z,35
2022-08-23T14:55:15.101Z,35
2022-08-23T15:00:15.099Z,34
2022-08-23T15:05:15.118Z,34
2022-08-23T15:15:15.089Z,34
2022-08-23T15:20:15.109Z,34
2022-08-23T15:25:15.098Z,35
2022-08-23T15:30:15.092Z,34
2022-08-23T15:35:15.107Z,34
2022-08-23T15:40:15.160Z,33
2022-08-23T15:45:15.097Z,32
2022-08-23T15:50:15.111Z,33
2022-08-23T15:55:15.632Z,33
2022-08-23T16:00:15.106Z,33
2022-08-23T16:05:15.093Z,33
2022-08-23T16:10:15.091Z,33
2022-08-23T16:15:15.089Z,33
2022-08-23T16:20:15.105Z,32
2022-08-23T16:25:15.085Z,33
2022-08-23T16:30:15.103Z,33
2022-08-23T16:35:15.098Z,33
2022-08-23T16:40:15.191Z,33
2022-08-23T16:45:15.098Z,33
2022-08-23T16:50:15.112Z,33
2022-08-23T16:55:15.099Z,34
2022-08-23T17:00:15.103Z,34
2022-08-23T17:05:15.097Z,35
2022-08-23T17:10:15.095Z,35
2022-08-23T17:15:15.092Z,34
2022-08-23T17:20:15.101Z,34
2022-08-23T17:25:15.098Z,34
2022-08-23T17:30:15.097Z,35
2022-08-23T17:35:15.288Z,35
2022-08-23T17:40:15.147Z,35
2022-08-23T17:45:15.092Z,35
2022-08-23T17:50:15.086Z,36
2022-08-23T17:55:15.087Z,40
2022-08-23T18:00:15.215Z,42
2022-08-23T18:05:15.094Z,44
2022-08-23T18:10:15.093Z,45
2022-08-23T18:15:15.094Z,46
2022-08-23T18:20:15.099Z,48
2022-08-23T18:25:15.082Z,49
2022-08-23T18:30:15.097Z,50
2022-08-23T18:35:15.095Z,50
2022-08-23T18:40:15.154Z,51
2022-08-23T18:45:15.092Z,51
2022-08-23T18:50:15.095Z,53
2022-08-23T18:55:15.091Z,53
2022-08-23T19:00:15.097Z,54
2022-08-23T19:05:15.089Z,55
2022-08-23T19:10:18.438Z,54
2022-08-23T19:15:15.101Z,54
2022-08-23T19:20:15.112Z,53
2022-08-23T19:25:15.100Z,50
2022-08-23T19:30:17.411Z,49
2022-08-23T19:35:15.100Z,49
2022-08-23T19:40:15.200Z,49
2022-08-23T19:45:15.088Z,48
2022-08-23T19:50:15.090Z,48
2022-08-23T19:55:15.089Z,47
2022-08-23T20:00:19.241Z,47
2022-08-23T20:05:15.089Z,47
2022-08-23T20:10:15.091Z,48
2022-08-23T20:15:15.087Z,49
2022-08-23T20:20:15.258Z,50
2022-08-23T20:25:15.089Z,50
2022-08-23T20:30:15.099Z,51
2022-08-23T20:35:15.101Z,52
2022-08-23T20:40:15.148Z,53
2022-08-23T20:45:15.090Z,53
2022-08-23T20:50:15.091Z,54
2022-08-23T20:55:15.087Z,55
2022-08-23T21:00:15.093Z,55
2022-08-23T21:05:15.090Z,56
2022-08-23T21:10:15.099Z,57
2022-08-23T21:15:15.095Z,58
2022-08-23T21:20:15.096Z,58
2022-08-23T21:25:15.091Z,58
2022-08-23T21:30:15.108Z,59
2022-08-23T21:35:15.094Z,60
2022-08-23T21:40:15.129Z,60
2022-08-23T21:45:15.094Z,61
2022-08-23T21:50:15.112Z,62
2022-08-23T21:55:15.096Z,62
2022-08-23T22:00:15.105Z,63
2022-08-23T22:05:15.097Z,63
2022-08-23T22:10:15.096Z,64
2022-08-23T22:15:15.094Z,65
2022-08-23T22:20:15.102Z,66
2022-08-23T22:25:15.087Z,66
2022-08-23T22:30:15.093Z,66
2022-08-23T22:35:15.087Z,65
2022-08-23T22:40:15.120Z,65
2022-08-23T22:45:15.091Z,66
2022-08-23T22:50:15.103Z,67
2022-08-23T22:55:15.098Z,68
2022-08-23T23:00:15.100Z,68
2022-08-23T23:05:15.101Z,68
2022-08-23T23:10:15.104Z,69
2022-08-23T23:15:15.098Z,69
2022-08-23T23:20:15.109Z,69
2022-08-23T23:25:15.100Z,69
2022-08-23T23:30:15.100Z,69
2022-08-23T23:35:15.091Z,69
2022-08-23T23:40:15.153Z,70
2022-08-23T23:45:15.093Z,70
2022-08-23T23:50:15.107Z,70
2022-08-23T23:55:15.106Z,71
